ISR45 LLBG-LLER
Flight info
| Callsign | ISR45 |
|---|---|
| Flight time | 0h 37m |
| Altitude | 20000 |
| Route | TOMAL J10 NURIT |
| Aircraft | A320/M-SDE3FGHIRWY/LB1 |
Departure
| Time | 2026-04-22 10:14 |
|---|---|
| Airport | Ben Gurion International Airport (LLBG) |
Arrival
| Time | 2026-04-22 10:52 |
|---|---|
| Airport | Ramon International Airport (LLER) |
| Time | Latitude | Longitude | Altitude | Speed | Heading |
|---|---|---|---|---|---|
| 2026-04-22 09:46 | 32.00058 | 34.87760 | 119 ft | 0 kts | 120° |
| 2026-04-22 10:02 | 32.00067 | 34.87741 | 115 ft | 4 kts | 121° |
| 2026-04-22 10:02 | 32.00082 | 34.87714 | 117 ft | 4 kts | 121° |
| 2026-04-22 10:03 | 32.00094 | 34.87686 | 116 ft | 4 kts | 104° |
| 2026-04-22 10:03 | 32.00095 | 34.87663 | 116 ft | 2 kts | 35° |
| 2026-04-22 10:03 | 32.00093 | 34.87662 | 116 ft | 0 kts | 32° |
| 2026-04-22 10:06 | 32.00111 | 34.87677 | 118 ft | 8 kts | 35° |
| 2026-04-22 10:06 | 32.00190 | 34.87733 | 120 ft | 17 kts | 31° |
| 2026-04-22 10:06 | 32.00292 | 34.87806 | 120 ft | 11 kts | 30° |
| 2026-04-22 10:07 | 32.00337 | 34.87787 | 120 ft | 9 kts | 301° |
| 2026-04-22 10:07 | 32.00394 | 34.87781 | 120 ft | 11 kts | 30° |
| 2026-04-22 10:07 | 32.00442 | 34.87816 | 120 ft | 13 kts | 30° |
| 2026-04-22 10:07 | 32.00461 | 34.87828 | 118 ft | 0 kts | 30° |
| 2026-04-22 10:08 | 32.00462 | 34.87829 | 118 ft | 2 kts | 30° |
| 2026-04-22 10:08 | 32.00513 | 34.87865 | 117 ft | 13 kts | 31° |
| 2026-04-22 10:08 | 32.00598 | 34.87926 | 118 ft | 16 kts | 31° |
| 2026-04-22 10:08 | 32.00659 | 34.87969 | 117 ft | 6 kts | 31° |
| 2026-04-22 10:09 | 32.00743 | 34.88031 | 116 ft | 20 kts | 32° |
| 2026-04-22 10:09 | 32.00866 | 34.88120 | 118 ft | 22 kts | 31° |
| 2026-04-22 10:09 | 32.01000 | 34.88216 | 116 ft | 23 kts | 31° |
| 2026-04-22 10:09 | 32.01143 | 34.88320 | 120 ft | 25 kts | 31° |
| 2026-04-22 10:10 | 32.01286 | 34.88433 | 119 ft | 25 kts | 40° |
| 2026-04-22 10:10 | 32.01406 | 34.88593 | 118 ft | 27 kts | 55° |
| 2026-04-22 10:10 | 32.01485 | 34.88786 | 119 ft | 25 kts | 74° |
| 2026-04-22 10:10 | 32.01520 | 34.88997 | 118 ft | 27 kts | 79° |
| 2026-04-22 10:11 | 32.01555 | 34.89222 | 119 ft | 29 kts | 79° |
| 2026-04-22 10:11 | 32.01586 | 34.89419 | 119 ft | 21 kts | 79° |
| 2026-04-22 10:11 | 32.01613 | 34.89600 | 119 ft | 23 kts | 80° |
| 2026-04-22 10:11 | 32.01679 | 34.89704 | 118 ft | 16 kts | 27° |
| 2026-04-22 10:12 | 32.01788 | 34.89770 | 117 ft | 17 kts | 13° |
| 2026-04-22 10:12 | 32.01842 | 34.89718 | 117 ft | 10 kts | 257° |
| 2026-04-22 10:12 | 32.01839 | 34.89697 | 118 ft | 0 kts | 261° |
| 2026-04-22 10:13 | 32.01838 | 34.89691 | 118 ft | 4 kts | 261° |
| 2026-04-22 10:13 | 32.01804 | 34.89466 | 113 ft | 62 kts | 259° |
| 2026-04-22 10:13 | 32.01689 | 34.88720 | 117 ft | 120 kts | 259° |
| 2026-04-22 10:13 | 32.01512 | 34.87564 | 119 ft | 165 kts | 259° |
| 2026-04-22 10:14 | 32.01303 | 34.86213 | 629 ft | 166 kts | 266° |
| 2026-04-22 10:14 | 32.01067 | 34.84881 | 1274 ft | 168 kts | 252° |
| 2026-04-22 10:14 | 32.00262 | 34.83879 | 1873 ft | 175 kts | 205° |
| 2026-04-22 10:14 | 31.99064 | 34.83671 | 2380 ft | 176 kts | 168° |
| 2026-04-22 10:15 | 31.97993 | 34.84324 | 2895 ft | 176 kts | 131° |
| 2026-04-22 10:15 | 31.97379 | 34.85553 | 3453 ft | 179 kts | 112° |
| 2026-04-22 10:15 | 31.96855 | 34.86985 | 3753 ft | 202 kts | 112° |
| 2026-04-22 10:15 | 31.96273 | 34.88581 | 4078 ft | 220 kts | 112° |
| 2026-04-22 10:16 | 31.95639 | 34.90327 | 4421 ft | 244 kts | 113° |
| 2026-04-22 10:16 | 31.94942 | 34.92243 | 4885 ft | 264 kts | 113° |
| 2026-04-22 10:16 | 31.94202 | 34.94265 | 5625 ft | 273 kts | 113° |
| 2026-04-22 10:16 | 31.93440 | 34.96337 | 6431 ft | 278 kts | 113° |
| 2026-04-22 10:17 | 31.92661 | 34.98448 | 7198 ft | 284 kts | 114° |
| 2026-04-22 10:17 | 31.91867 | 35.00603 | 7968 ft | 290 kts | 114° |
| 2026-04-22 10:17 | 31.91057 | 35.02803 | 8698 ft | 296 kts | 114° |
| 2026-04-22 10:17 | 31.90238 | 35.05035 | 8940 ft | 297 kts | 114° |
| 2026-04-22 10:18 | 31.89421 | 35.07267 | 9006 ft | 297 kts | 114° |
| 2026-04-22 10:18 | 31.88591 | 35.09529 | 9014 ft | 297 kts | 114° |
| 2026-04-22 10:18 | 31.87769 | 35.11759 | 9016 ft | 298 kts | 114° |
| 2026-04-22 10:18 | 31.86945 | 35.13989 | 9017 ft | 297 kts | 114° |
| 2026-04-22 10:19 | 31.86122 | 35.16209 | 9016 ft | 296 kts | 114° |
| 2026-04-22 10:19 | 31.85298 | 35.18434 | 9018 ft | 297 kts | 114° |
| 2026-04-22 10:19 | 31.84477 | 35.20656 | 9019 ft | 297 kts | 114° |
| 2026-04-22 10:19 | 31.83653 | 35.22885 | 9020 ft | 297 kts | 114° |
| 2026-04-22 10:20 | 31.82828 | 35.25109 | 9020 ft | 296 kts | 114° |
| 2026-04-22 10:20 | 31.82005 | 35.27327 | 9023 ft | 296 kts | 114° |
| 2026-04-22 10:20 | 31.81185 | 35.29537 | 9021 ft | 296 kts | 114° |
| 2026-04-22 10:20 | 31.80363 | 35.31756 | 9018 ft | 295 kts | 114° |
| 2026-04-22 10:21 | 31.79544 | 35.33968 | 9021 ft | 295 kts | 114° |
| 2026-04-22 10:21 | 31.78720 | 35.36180 | 9030 ft | 295 kts | 114° |
| 2026-04-22 10:21 | 31.77893 | 35.38391 | 9029 ft | 296 kts | 115° |
| 2026-04-22 10:21 | 31.77058 | 35.40598 | 9028 ft | 295 kts | 117° |
| 2026-04-22 10:22 | 31.75968 | 35.42629 | 9029 ft | 294 kts | 130° |
| 2026-04-22 10:22 | 31.74534 | 35.44318 | 9026 ft | 292 kts | 143° |
| 2026-04-22 10:22 | 31.72821 | 35.45583 | 9117 ft | 292 kts | 157° |
| 2026-04-22 10:22 | 31.70907 | 35.46404 | 9905 ft | 293 kts | 167° |
| 2026-04-22 10:23 | 31.68867 | 35.46821 | 10366 ft | 307 kts | 178° |
| 2026-04-22 10:23 | 31.66664 | 35.46711 | 10552 ft | 328 kts | 191° |
| 2026-04-22 10:23 | 31.64352 | 35.46166 | 10704 ft | 349 kts | 193° |
| 2026-04-22 10:23 | 31.61931 | 35.45581 | 11180 ft | 359 kts | 193° |
| 2026-04-22 10:24 | 31.59465 | 35.45003 | 11803 ft | 363 kts | 192° |
| 2026-04-22 10:24 | 31.56975 | 35.44440 | 12457 ft | 367 kts | 192° |
| 2026-04-22 10:24 | 31.54447 | 35.43879 | 13095 ft | 371 kts | 192° |
| 2026-04-22 10:24 | 31.51900 | 35.43316 | 13729 ft | 375 kts | 192° |
| 2026-04-22 10:25 | 31.49323 | 35.42749 | 14309 ft | 378 kts | 192° |
| 2026-04-22 10:25 | 31.46731 | 35.42176 | 14878 ft | 381 kts | 192° |
| 2026-04-22 10:25 | 31.44117 | 35.41595 | 15449 ft | 384 kts | 192° |
| 2026-04-22 10:25 | 31.41485 | 35.41010 | 16016 ft | 386 kts | 192° |
| 2026-04-22 10:26 | 31.38799 | 35.40413 | 16605 ft | 389 kts | 192° |
| 2026-04-22 10:26 | 31.36129 | 35.39819 | 16940 ft | 391 kts | 192° |
| 2026-04-22 10:26 | 31.33434 | 35.39232 | 17019 ft | 402 kts | 191° |
| 2026-04-22 10:26 | 31.30593 | 35.38880 | 17027 ft | 420 kts | 187° |
| 2026-04-22 10:27 | 31.27637 | 35.38573 | 17025 ft | 429 kts | 187° |
| 2026-04-22 10:27 | 31.24651 | 35.38266 | 17031 ft | 432 kts | 187° |
| 2026-04-22 10:27 | 31.21656 | 35.37958 | 17025 ft | 432 kts | 187° |
| 2026-04-22 10:27 | 31.18658 | 35.37650 | 17021 ft | 432 kts | 187° |
| 2026-04-22 10:28 | 31.15658 | 35.37340 | 17027 ft | 432 kts | 187° |
| 2026-04-22 10:28 | 31.12659 | 35.37027 | 17032 ft | 432 kts | 187° |
| 2026-04-22 10:28 | 31.09664 | 35.36714 | 17017 ft | 432 kts | 187° |
| 2026-04-22 10:28 | 31.06667 | 35.36402 | 17023 ft | 432 kts | 187° |
| 2026-04-22 10:29 | 31.03673 | 35.36092 | 17024 ft | 432 kts | 187° |
| 2026-04-22 10:29 | 31.00676 | 35.35785 | 17022 ft | 432 kts | 187° |
| 2026-04-22 10:29 | 30.97681 | 35.35480 | 17018 ft | 432 kts | 187° |
| 2026-04-22 10:29 | 30.94714 | 35.34966 | 17012 ft | 430 kts | 195° |
| 2026-04-22 10:30 | 30.91875 | 35.33909 | 17003 ft | 427 kts | 204° |
| 2026-04-22 10:30 | 30.89144 | 35.32548 | 17005 ft | 427 kts | 205° |
| 2026-04-22 10:30 | 30.86412 | 35.31192 | 16999 ft | 427 kts | 205° |
| 2026-04-22 10:30 | 30.83677 | 35.29843 | 16995 ft | 427 kts | 205° |
| 2026-04-22 10:31 | 30.80940 | 35.28497 | 17001 ft | 427 kts | 205° |
| 2026-04-22 10:31 | 30.78209 | 35.27156 | 16996 ft | 427 kts | 205° |
| 2026-04-22 10:31 | 30.75473 | 35.25814 | 17004 ft | 427 kts | 205° |
| 2026-04-22 10:31 | 30.72737 | 35.24471 | 16998 ft | 427 kts | 205° |
| 2026-04-22 10:32 | 30.70006 | 35.23129 | 16993 ft | 427 kts | 205° |
| 2026-04-22 10:32 | 30.67272 | 35.21784 | 16985 ft | 427 kts | 205° |
| 2026-04-22 10:32 | 30.64538 | 35.20439 | 16987 ft | 427 kts | 205° |
| 2026-04-22 10:32 | 30.61803 | 35.19093 | 16985 ft | 427 kts | 205° |
| 2026-04-22 10:33 | 30.59066 | 35.17751 | 16985 ft | 427 kts | 205° |
| 2026-04-22 10:33 | 30.56263 | 35.16478 | 16984 ft | 428 kts | 199° |
| 2026-04-22 10:33 | 30.53356 | 35.15703 | 16987 ft | 430 kts | 191° |
| 2026-04-22 10:33 | 30.50399 | 35.15144 | 16986 ft | 430 kts | 191° |
| 2026-04-22 10:34 | 30.47448 | 35.14578 | 16977 ft | 430 kts | 192° |
| 2026-04-22 10:34 | 30.44497 | 35.14008 | 16975 ft | 430 kts | 192° |
| 2026-04-22 10:34 | 30.41545 | 35.13439 | 16977 ft | 430 kts | 192° |
| 2026-04-22 10:34 | 30.38626 | 35.12878 | 16799 ft | 418 kts | 192° |
| 2026-04-22 10:35 | 30.35798 | 35.12334 | 16541 ft | 408 kts | 192° |
| 2026-04-22 10:35 | 30.33010 | 35.11796 | 16278 ft | 404 kts | 192° |
| 2026-04-22 10:35 | 30.30251 | 35.11266 | 15733 ft | 400 kts | 191° |
| 2026-04-22 10:35 | 30.27517 | 35.10749 | 15143 ft | 397 kts | 191° |
| 2026-04-22 10:36 | 30.24800 | 35.10237 | 14544 ft | 394 kts | 191° |
| 2026-04-22 10:36 | 30.22106 | 35.09731 | 13940 ft | 392 kts | 191° |
| 2026-04-22 10:36 | 30.19427 | 35.09208 | 13269 ft | 389 kts | 191° |
| 2026-04-22 10:36 | 30.16776 | 35.08663 | 12644 ft | 384 kts | 193° |
| 2026-04-22 10:37 | 30.14161 | 35.08111 | 12011 ft | 380 kts | 192° |
| 2026-04-22 10:37 | 30.09129 | 35.07045 | 11602 ft | 351 kts | 191° |
| 2026-04-22 10:37 | 30.06773 | 35.06552 | 11473 ft | 337 kts | 191° |
| 2026-04-22 10:38 | 30.04511 | 35.06093 | 11339 ft | 324 kts | 190° |
| 2026-04-22 10:38 | 30.02324 | 35.05668 | 11213 ft | 313 kts | 191° |
| 2026-04-22 10:38 | 30.00207 | 35.05264 | 11087 ft | 303 kts | 190° |
| 2026-04-22 10:38 | 29.98164 | 35.04874 | 10975 ft | 293 kts | 191° |
| 2026-04-22 10:39 | 29.96185 | 35.04492 | 10833 ft | 284 kts | 191° |
| 2026-04-22 10:39 | 29.94268 | 35.04119 | 10676 ft | 276 kts | 191° |
| 2026-04-22 10:39 | 29.92391 | 35.03753 | 10533 ft | 270 kts | 191° |
| 2026-04-22 10:39 | 29.90539 | 35.03392 | 10461 ft | 271 kts | 190° |
| 2026-04-22 10:40 | 29.88679 | 35.03030 | 10321 ft | 272 kts | 190° |
| 2026-04-22 10:40 | 29.86779 | 35.02661 | 9860 ft | 278 kts | 189° |
| 2026-04-22 10:40 | 29.85505 | 35.02414 | 9683 ft | 273 kts | 189° |
| 2026-04-22 10:40 | 29.83046 | 35.01941 | 8990 ft | 269 kts | 189° |
| 2026-04-22 10:41 | 29.81795 | 35.01802 | 8627 ft | 266 kts | 179° |
| 2026-04-22 10:41 | 29.79951 | 35.01872 | 8082 ft | 265 kts | 177° |
| 2026-04-22 10:41 | 29.78120 | 35.01949 | 7580 ft | 262 kts | 177° |
| 2026-04-22 10:41 | 29.76306 | 35.01983 | 7065 ft | 260 kts | 183° |
| 2026-04-22 10:42 | 29.74549 | 35.01565 | 6688 ft | 254 kts | 199° |
| 2026-04-22 10:42 | 29.72990 | 35.00739 | 6528 ft | 241 kts | 205° |
| 2026-04-22 10:42 | 29.71508 | 34.99904 | 6408 ft | 233 kts | 204° |
| 2026-04-22 10:42 | 29.70050 | 34.99092 | 6310 ft | 232 kts | 203° |
| 2026-04-22 10:43 | 29.68621 | 34.98297 | 6198 ft | 225 kts | 203° |
| 2026-04-22 10:43 | 29.67207 | 34.97512 | 5909 ft | 227 kts | 204° |
| 2026-04-22 10:43 | 29.65786 | 34.96723 | 5620 ft | 226 kts | 204° |
| 2026-04-22 10:43 | 29.64375 | 34.95942 | 5323 ft | 226 kts | 203° |
| 2026-04-22 10:44 | 29.62957 | 34.95157 | 5013 ft | 227 kts | 203° |
| 2026-04-22 10:44 | 29.61537 | 34.94369 | 4711 ft | 227 kts | 204° |
| 2026-04-22 10:44 | 29.60115 | 34.93577 | 4393 ft | 225 kts | 204° |
| 2026-04-22 10:44 | 29.58704 | 34.92792 | 4094 ft | 225 kts | 204° |
| 2026-04-22 10:45 | 29.57294 | 34.92009 | 3792 ft | 225 kts | 205° |
| 2026-04-22 10:45 | 29.55881 | 34.91226 | 3483 ft | 226 kts | 206° |
| 2026-04-22 10:45 | 29.54479 | 34.90448 | 3322 ft | 219 kts | 206° |
| 2026-04-22 10:45 | 29.53097 | 34.89771 | 3322 ft | 214 kts | 190° |
| 2026-04-22 10:46 | 29.51639 | 34.89883 | 3302 ft | 211 kts | 155° |
| 2026-04-22 10:46 | 29.50472 | 34.90890 | 3315 ft | 207 kts | 122° |
| 2026-04-22 10:46 | 29.49962 | 34.92387 | 3317 ft | 202 kts | 92° |
| 2026-04-22 10:46 | 29.50181 | 34.93949 | 3309 ft | 199 kts | 63° |
| 2026-04-22 10:47 | 29.51050 | 34.95154 | 3301 ft | 198 kts | 32° |
| 2026-04-22 10:47 | 29.52321 | 34.95724 | 3322 ft | 198 kts | 14° |
| 2026-04-22 10:47 | 29.53658 | 34.96090 | 3336 ft | 198 kts | 14° |
| 2026-04-22 10:47 | 29.55001 | 34.96461 | 3144 ft | 198 kts | 13° |
| 2026-04-22 10:48 | 29.56340 | 34.96833 | 2939 ft | 199 kts | 13° |
| 2026-04-22 10:48 | 29.57672 | 34.97204 | 2762 ft | 195 kts | 14° |
| 2026-04-22 10:48 | 29.59003 | 34.97576 | 2662 ft | 197 kts | 13° |
| 2026-04-22 10:48 | 29.60322 | 34.97944 | 2437 ft | 194 kts | 13° |
| 2026-04-22 10:49 | 29.61618 | 34.98306 | 2228 ft | 189 kts | 12° |
| 2026-04-22 10:49 | 29.62876 | 34.98657 | 1952 ft | 182 kts | 12° |
| 2026-04-22 10:49 | 29.64068 | 34.98990 | 1708 ft | 170 kts | 13° |
| 2026-04-22 10:49 | 29.65160 | 34.99294 | 1500 ft | 154 kts | 13° |
| 2026-04-22 10:50 | 29.66182 | 34.99580 | 1310 ft | 148 kts | 13° |
| 2026-04-22 10:50 | 29.67175 | 34.99857 | 1090 ft | 145 kts | 13° |
| 2026-04-22 10:50 | 29.68142 | 35.00128 | 903 ft | 142 kts | 12° |
| 2026-04-22 10:50 | 29.69088 | 35.00386 | 699 ft | 137 kts | 15° |
| 2026-04-22 10:51 | 29.69998 | 35.00643 | 536 ft | 133 kts | 15° |
| 2026-04-22 10:51 | 29.70889 | 35.00896 | 366 ft | 132 kts | 14° |
| 2026-04-22 10:51 | 29.71744 | 35.01136 | 265 ft | 110 kts | 14° |
| 2026-04-22 10:51 | 29.72316 | 35.01297 | 264 ft | 60 kts | 13° |
| 2026-04-22 10:52 | 29.72613 | 35.01381 | 260 ft | 38 kts | 13° |
| 2026-04-22 10:52 | 29.72862 | 35.01449 | 258 ft | 35 kts | 13° |
| 2026-04-22 10:52 | 29.73091 | 35.01509 | 258 ft | 32 kts | 6° |
| 2026-04-22 10:52 | 29.73270 | 35.01491 | 257 ft | 20 kts | 348° |
| 2026-04-22 10:53 | 29.73369 | 35.01454 | 254 ft | 12 kts | 327° |
| 2026-04-22 10:53 | 29.73373 | 35.01368 | 252 ft | 11 kts | 217° |
| 2026-04-22 10:53 | 29.73295 | 35.01346 | 252 ft | 13 kts | 193° |
| 2026-04-22 10:53 | 29.73200 | 35.01319 | 252 ft | 17 kts | 193° |
| 2026-04-22 10:54 | 29.73073 | 35.01284 | 252 ft | 21 kts | 193° |
| 2026-04-22 10:54 | 29.72926 | 35.01243 | 252 ft | 23 kts | 193° |
| 2026-04-22 10:54 | 29.72767 | 35.01198 | 252 ft | 24 kts | 194° |
| 2026-04-22 10:54 | 29.72595 | 35.01150 | 252 ft | 26 kts | 194° |
| 2026-04-22 10:55 | 29.72448 | 35.01109 | 253 ft | 13 kts | 193° |
| 2026-04-22 10:55 | 29.72394 | 35.01065 | 253 ft | 11 kts | 258° |
| 2026-04-22 10:55 | 29.72410 | 35.00971 | 252 ft | 13 kts | 284° |
| 2026-04-22 10:55 | 29.72435 | 35.00867 | 251 ft | 14 kts | 288° |
| 2026-04-22 10:56 | 29.72453 | 35.00783 | 251 ft | 4 kts | 284° |
| 2026-04-22 10:56 | 29.72458 | 35.00761 | 251 ft | 0 kts | 283° |